sensor_id;sensor_type;location;lat;lon;timestamp;pressure;altitude;pressure_sealevel;temperature
70819;BMP280;58439;51.046;13.692;2023-03-31T00:03:07;99200.25;;;11.76
70819;BMP280;58439;51.046;13.692;2023-03-31T00:09:52;99190.31;;;11.78
70819;BMP280;58439;51.046;13.692;2023-03-31T00:12:42;99188.31;;;11.80
70819;BMP280;58439;51.046;13.692;2023-03-31T00:15:10;99189.91;;;11.81
70819;BMP280;58439;51.046;13.692;2023-03-31T00:23:12;99188.38;;;11.73
70819;BMP280;58439;51.046;13.692;2023-03-31T00:36:51;99183.56;;;11.70
70819;BMP280;58439;51.046;13.692;2023-03-31T00:39:23;99173.69;;;11.72
70819;BMP280;58439;51.046;13.692;2023-03-31T00:41:51;99168.69;;;11.71
70819;BMP280;58439;51.046;13.692;2023-03-31T01:01:20;99138.34;;;11.63
70819;BMP280;58439;51.046;13.692;2023-03-31T01:13:58;99125.59;;;11.67
70819;BMP280;58439;51.046;13.692;2023-03-31T01:16:29;99111.38;;;11.63
70819;BMP280;58439;51.046;13.692;2023-03-31T01:18:57;99113.97;;;11.63
70819;BMP280;58439;51.046;13.692;2023-03-31T01:52:02;99067.59;;;11.03
70819;BMP280;58439;51.046;13.692;2023-03-31T01:54:50;99060.09;;;11.07
70819;BMP280;58439;51.046;13.692;2023-03-31T02:00:12;99068.09;;;10.93
70819;BMP280;58439;51.046;13.692;2023-03-31T02:03:12;99054.28;;;10.86
70819;BMP280;58439;51.046;13.692;2023-03-31T02:05:58;99048.91;;;10.81
70819;BMP280;58439;51.046;13.692;2023-03-31T02:08:56;99042.31;;;10.79
70819;BMP280;58439;51.046;13.692;2023-03-31T02:11:32;99040.09;;;10.75
70819;BMP280;58439;51.046;13.692;2023-03-31T02:14:02;99033.28;;;10.74
70819;BMP280;58439;51.046;13.692;2023-03-31T02:16:36;99030.53;;;10.69
70819;BMP280;58439;51.046;13.692;2023-03-31T02:19:09;99037.06;;;10.60
70819;BMP280;58439;51.046;13.692;2023-03-31T02:21:38;99026.22;;;10.57
70819;BMP280;58439;51.046;13.692;2023-03-31T02:24:11;99030.69;;;10.56
70819;BMP280;58439;51.046;13.692;2023-03-31T02:26:51;99019.63;;;10.54
70819;BMP280;58439;51.046;13.692;2023-03-31T02:29:20;99009.53;;;10.58
70819;BMP280;58439;51.046;13.692;2023-03-31T02:34:42;99017.16;;;10.41
70819;BMP280;58439;51.046;13.692;2023-03-31T02:37:13;99014.38;;;10.36
70819;BMP280;58439;51.046;13.692;2023-03-31T02:39:47;99016.63;;;10.32
70819;BMP280;58439;51.046;13.692;2023-03-31T02:42:16;99009.97;;;10.36
70819;BMP280;58439;51.046;13.692;2023-03-31T02:44:44;99007.53;;;10.35
70819;BMP280;58439;51.046;13.692;2023-03-31T02:47:14;99009.59;;;10.33
70819;BMP280;58439;51.046;13.692;2023-03-31T02:49:58;99007.97;;;10.32
70819;BMP280;58439;51.046;13.692;2023-03-31T03:15:34;98976.78;;;10.37
70819;BMP280;58439;51.046;13.692;2023-03-31T03:17:57;98978.94;;;10.40
70819;BMP280;58439;51.046;13.692;2023-03-31T03:20:28;98986.00;;;10.39
70819;BMP280;58439;51.046;13.692;2023-03-31T03:22:55;98975.31;;;10.41
70819;BMP280;58439;51.046;13.692;2023-03-31T03:25:25;98966.69;;;10.40
70819;BMP280;58439;51.046;13.692;2023-03-31T03:27:52;98969.06;;;10.42
70819;BMP280;58439;51.046;13.692;2023-03-31T03:30:19;98968.66;;;10.45
70819;BMP280;58439;51.046;13.692;2023-03-31T03:32:47;98953.78;;;10.45
70819;BMP280;58439;51.046;13.692;2023-03-31T03:39:27;98949.66;;;10.56
70819;BMP280;58439;51.046;13.692;2023-03-31T03:42:05;98945.19;;;10.57
70819;BMP280;58439;51.046;13.692;2023-03-31T03:44:33;98947.34;;;10.60
70819;BMP280;58439;51.046;13.692;2023-03-31T03:47:00;98947.09;;;10.68
70819;BMP280;58439;51.046;13.692;2023-03-31T03:49:27;98938.94;;;10.76
70819;BMP280;58439;51.046;13.692;2023-03-31T03:51:54;98947.28;;;10.85
70819;BMP280;58439;51.046;13.692;2023-03-31T03:54:22;98937.38;;;10.87
70819;BMP280;58439;51.046;13.692;2023-03-31T03:56:50;98934.91;;;10.92
70819;BMP280;58439;51.046;13.692;2023-03-31T03:59:25;98932.31;;;10.92
70819;BMP280;58439;51.046;13.692;2023-03-31T04:02:45;98922.63;;;10.92
70819;BMP280;58439;51.046;13.692;2023-03-31T04:05:56;98920.59;;;10.94
70819;BMP280;58439;51.046;13.692;2023-03-31T04:08:23;98917.84;;;10.89
70819;BMP280;58439;51.046;13.692;2023-03-31T04:10:50;98913.66;;;10.88
70819;BMP280;58439;51.046;13.692;2023-03-31T04:13:19;98905.00;;;10.88
70819;BMP280;58439;51.046;13.692;2023-03-31T04:16:21;98906.78;;;10.87
70819;BMP280;58439;51.046;13.692;2023-03-31T04:18:52;98904.41;;;10.86
70819;BMP280;58439;51.046;13.692;2023-03-31T04:21:22;98905.63;;;10.83
70819;BMP280;58439;51.046;13.692;2023-03-31T04:23:54;98898.69;;;10.77
70819;BMP280;58439;51.046;13.692;2023-03-31T04:26:34;98891.28;;;10.74
70819;BMP280;58439;51.046;13.692;2023-03-31T04:29:14;98890.94;;;10.70
70819;BMP280;58439;51.046;13.692;2023-03-31T04:36:21;98879.66;;;10.70
70819;BMP280;58439;51.046;13.692;2023-03-31T04:39:49;98872.84;;;10.69
70819;BMP280;58439;51.046;13.692;2023-03-31T04:47:16;98863.91;;;10.77
70819;BMP280;58439;51.046;13.692;2023-03-31T04:49:45;98862.88;;;10.78
70819;BMP280;58439;51.046;13.692;2023-03-31T04:52:12;98857.22;;;10.81
70819;BMP280;58439;51.046;13.692;2023-03-31T04:54:39;98853.22;;;10.90
70819;BMP280;58439;51.046;13.692;2023-03-31T04:57:06;98850.28;;;10.98
70819;BMP280;58439;51.046;13.692;2023-03-31T04:59:33;98851.09;;;10.98
70819;BMP280;58439;51.046;13.692;2023-03-31T05:02:08;98840.19;;;11.01
70819;BMP280;58439;51.046;13.692;2023-03-31T05:04:36;98845.66;;;11.00
70819;BMP280;58439;51.046;13.692;2023-03-31T05:07:03;98842.69;;;10.96
70819;BMP280;58439;51.046;13.692;2023-03-31T05:09:30;98828.47;;;10.92
70819;BMP280;58439;51.046;13.692;2023-03-31T05:12:01;98833.91;;;10.91
70819;BMP280;58439;51.046;13.692;2023-03-31T05:14:28;98838.78;;;10.87
70819;BMP280;58439;51.046;13.692;2023-03-31T05:32:18;98804.13;;;10.92
70819;BMP280;58439;51.046;13.692;2023-03-31T05:35:19;98794.50;;;11.04
70819;BMP280;58439;51.046;13.692;2023-03-31T05:38:46;98781.84;;;11.24
70819;BMP280;58439;51.046;13.692;2023-03-31T05:41:47;98775.25;;;11.34
70819;BMP280;58439;51.046;13.692;2023-03-31T05:44:15;98772.72;;;11.39
70819;BMP280;58439;51.046;13.692;2023-03-31T05:46:52;98772.63;;;11.45
70819;BMP280;58439;51.046;13.692;2023-03-31T05:53:14;98754.00;;;11.70
70819;BMP280;58439;51.046;13.692;2023-03-31T05:57:04;98745.47;;;11.75
70819;BMP280;58439;51.046;13.692;2023-03-31T06:00:03;98743.28;;;11.83
70819;BMP280;58439;51.046;13.692;2023-03-31T06:03:23;98746.34;;;11.92
70819;BMP280;58439;51.046;13.692;2023-03-31T06:07:01;98731.72;;;11.96
70819;BMP280;58439;51.046;13.692;2023-03-31T06:09:29;98728.34;;;11.96
70819;BMP280;58439;51.046;13.692;2023-03-31T06:11:56;98732.78;;;11.95
70819;BMP280;58439;51.046;13.692;2023-03-31T06:14:26;98726.41;;;11.91
70819;BMP280;58439;51.046;13.692;2023-03-31T06:17:48;98724.38;;;11.81
70819;BMP280;58439;51.046;13.692;2023-03-31T06:20:24;98720.44;;;11.79
70819;BMP280;58439;51.046;13.692;2023-03-31T06:22:59;98720.97;;;11.81
70819;BMP280;58439;51.046;13.692;2023-03-31T06:25:27;98714.03;;;11.86
70819;BMP280;58439;51.046;13.692;2023-03-31T06:28:27;98715.34;;;11.89
70819;BMP280;58439;51.046;13.692;2023-03-31T06:31:19;98694.97;;;11.91
70819;BMP280;58439;51.046;13.692;2023-03-31T06:33:47;98693.50;;;11.95
70819;BMP280;58439;51.046;13.692;2023-03-31T06:36:18;98693.56;;;12.00
70819;BMP280;58439;51.046;13.692;2023-03-31T06:38:46;98698.06;;;12.05
70819;BMP280;58439;51.046;13.692;2023-03-31T06:41:15;98691.22;;;12.15
70819;BMP280;58439;51.046;13.692;2023-03-31T06:43:44;98688.13;;;12.35
70819;BMP280;58439;51.046;13.692;2023-03-31T06:46:40;98701.56;;;12.72
70819;BMP280;58439;51.046;13.692;2023-03-31T06:49:16;98690.75;;;13.08
70819;BMP280;58439;51.046;13.692;2023-03-31T06:55:58;98685.97;;;13.70
70819;BMP280;58439;51.046;13.692;2023-03-31T06:59:58;98674.81;;;13.85
70819;BMP280;58439;51.046;13.692;2023-03-31T07:03:05;98665.91;;;13.91
70819;BMP280;58439;51.046;13.692;2023-03-31T07:06:41;98666.72;;;13.92
70819;BMP280;58439;51.046;13.692;2023-03-31T07:10:33;98665.69;;;13.93
70819;BMP280;58439;51.046;13.692;2023-03-31T07:14:40;98670.41;;;13.91
70819;BMP280;58439;51.046;13.692;2023-03-31T07:21:46;98665.25;;;14.01
70819;BMP280;58439;51.046;13.692;2023-03-31T07:30:31;98658.34;;;14.27
70819;BMP280;58439;51.046;13.692;2023-03-31T07:34:21;98639.84;;;14.54
70819;BMP280;58439;51.046;13.692;2023-03-31T07:36:48;98634.94;;;14.72
70819;BMP280;58439;51.046;13.692;2023-03-31T07:43:49;98622.28;;;15.47
70819;BMP280;58439;51.046;13.692;2023-03-31T07:51:47;98615.75;;;15.70
70819;BMP280;58439;51.046;13.692;2023-03-31T07:55:39;98616.78;;;15.74
70819;BMP280;58439;51.046;13.692;2023-03-31T08:02:10;98608.31;;;15.52
70819;BMP280;58439;51.046;13.692;2023-03-31T08:05:51;98606.22;;;15.44
70819;BMP280;58439;51.046;13.692;2023-03-31T08:12:35;98609.34;;;15.41
70819;BMP280;58439;51.046;13.692;2023-03-31T08:24:19;98610.16;;;15.41
70819;BMP280;58439;51.046;13.692;2023-03-31T08:32:24;98600.66;;;15.35
70819;BMP280;58439;51.046;13.692;2023-03-31T08:35:25;98596.66;;;15.17
70819;BMP280;58439;51.046;13.692;2023-03-31T08:47:42;98584.72;;;14.79
70819;BMP280;58439;51.046;13.692;2023-03-31T08:50:39;98590.72;;;14.69
70819;BMP280;58439;51.046;13.692;2023-03-31T08:55:00;98585.44;;;14.64
70819;BMP280;58439;51.046;13.692;2023-03-31T08:59:40;98569.31;;;14.45
70819;BMP280;58439;51.046;13.692;2023-03-31T09:04:36;98570.41;;;13.75
70819;BMP280;58439;51.046;13.692;2023-03-31T09:17:28;98548.13;;;13.51
70819;BMP280;58439;51.046;13.692;2023-03-31T09:21:34;98534.63;;;13.69
70819;BMP280;58439;51.046;13.692;2023-03-31T09:24:18;98538.34;;;13.78
70819;BMP280;58439;51.046;13.692;2023-03-31T09:28:03;98534.69;;;13.79
70819;BMP280;58439;51.046;13.692;2023-03-31T09:30:36;98532.34;;;13.83
70819;BMP280;58439;51.046;13.692;2023-03-31T09:42:24;98512.78;;;14.01
70819;BMP280;58439;51.046;13.692;2023-03-31T09:47:05;98505.16;;;14.04
70819;BMP280;58439;51.046;13.692;2023-03-31T09:50:05;98494.19;;;14.17
70819;BMP280;58439;51.046;13.692;2023-03-31T09:53:14;98506.88;;;14.26
70819;BMP280;58439;51.046;13.692;2023-03-31T10:00:35;98508.09;;;14.08
70819;BMP280;58439;51.046;13.692;2023-03-31T10:06:43;98478.63;;;14.11
70819;BMP280;58439;51.046;13.692;2023-03-31T10:20:59;98480.13;;;13.92
70819;BMP280;58439;51.046;13.692;2023-03-31T10:24:47;98473.56;;;13.99
70819;BMP280;58439;51.046;13.692;2023-03-31T10:27:27;98467.56;;;14.04
70819;BMP280;58439;51.046;13.692;2023-03-31T10:30:01;98461.25;;;14.00
70819;BMP280;58439;51.046;13.692;2023-03-31T10:32:38;98455.75;;;14.01
70819;BMP280;58439;51.046;13.692;2023-03-31T10:35:32;98451.28;;;14.07
70819;BMP280;58439;51.046;13.692;2023-03-31T10:38:06;98448.91;;;14.10
70819;BMP280;58439;51.046;13.692;2023-03-31T10:40:35;98445.50;;;14.10
70819;BMP280;58439;51.046;13.692;2023-03-31T10:43:16;98440.03;;;14.11
70819;BMP280;58439;51.046;13.692;2023-03-31T10:48:23;98446.53;;;14.04
70819;BMP280;58439;51.046;13.692;2023-03-31T10:50:52;98443.91;;;14.04
70819;BMP280;58439;51.046;13.692;2023-03-31T10:53:19;98430.84;;;14.19
70819;BMP280;58439;51.046;13.692;2023-03-31T11:08:36;98410.63;;;14.20
70819;BMP280;58439;51.046;13.692;2023-03-31T11:14:43;98403.00;;;14.23
70819;BMP280;58439;51.046;13.692;2023-03-31T11:23:15;98389.94;;;13.91
70819;BMP280;58439;51.046;13.692;2023-03-31T11:29:28;98382.28;;;13.79
70819;BMP280;58439;51.046;13.692;2023-03-31T11:32:32;98378.47;;;13.55
70819;BMP280;58439;51.046;13.692;2023-03-31T11:42:00;98365.78;;;12.72
70819;BMP280;58439;51.046;13.692;2023-03-31T11:53:35;98337.78;;;12.24
70819;BMP280;58439;51.046;13.692;2023-03-31T11:56:07;98335.22;;;12.07
70819;BMP280;58439;51.046;13.692;2023-03-31T11:58:47;98344.72;;;11.92
70819;BMP280;58439;51.046;13.692;2023-03-31T12:01:24;98349.22;;;11.74
70819;BMP280;58439;51.046;13.692;2023-03-31T12:04:36;98345.47;;;11.70
70819;BMP280;58439;51.046;13.692;2023-03-31T12:11:51;98330.25;;;11.67
70819;BMP280;58439;51.046;13.692;2023-03-31T12:14:36;98324.78;;;11.69
70819;BMP280;58439;51.046;13.692;2023-03-31T12:17:13;98319.78;;;11.67
70819;BMP280;58439;51.046;13.692;2023-03-31T12:19:59;98308.63;;;11.77
70819;BMP280;58439;51.046;13.692;2023-03-31T12:22:41;98304.34;;;11.87
70819;BMP280;58439;51.046;13.692;2023-03-31T12:25:21;98307.28;;;11.96
70819;BMP280;58439;51.046;13.692;2023-03-31T12:27:49;98298.28;;;12.09
70819;BMP280;58439;51.046;13.692;2023-03-31T12:30:40;98290.72;;;12.12
70819;BMP280;58439;51.046;13.692;2023-03-31T12:33:30;98292.03;;;12.10
70819;BMP280;58439;51.046;13.692;2023-03-31T12:56:19;98257.09;;;12.04
70819;BMP280;58439;51.046;13.692;2023-03-31T12:58:47;98247.66;;;12.03
70819;BMP280;58439;51.046;13.692;2023-03-31T13:04:49;98232.28;;;12.12
70819;BMP280;58439;51.046;13.692;2023-03-31T13:13:16;98221.78;;;12.39
70819;BMP280;58439;51.046;13.692;2023-03-31T13:15:53;98218.63;;;12.37
70819;BMP280;58439;51.046;13.692;2023-03-31T13:22:34;98208.22;;;12.47
70819;BMP280;58439;51.046;13.692;2023-03-31T13:25:56;98199.75;;;12.72
70819;BMP280;58439;51.046;13.692;2023-03-31T13:29:40;98192.69;;;13.25
70819;BMP280;58439;51.046;13.692;2023-03-31T13:32:23;98196.78;;;13.68
70819;BMP280;58439;51.046;13.692;2023-03-31T13:35:29;98186.06;;;14.36
70819;BMP280;58439;51.046;13.692;2023-03-31T13:38:33;98184.59;;;14.99
70819;BMP280;58439;51.046;13.692;2023-03-31T13:41:33;98178.31;;;14.95
70819;BMP280;58439;51.046;13.692;2023-03-31T13:44:15;98171.28;;;14.60
70819;BMP280;58439;51.046;13.692;2023-03-31T13:51:57;98155.28;;;13.65
70819;BMP280;58439;51.046;13.692;2023-03-31T14:01:39;98145.50;;;13.55
70819;BMP280;58439;51.046;13.692;2023-03-31T14:11:30;98169.38;;;13.44
70819;BMP280;58439;51.046;13.692;2023-03-31T14:14:23;98165.22;;;13.53
70819;BMP280;58439;51.046;13.692;2023-03-31T14:16:58;98158.41;;;13.72
70819;BMP280;58439;51.046;13.692;2023-03-31T14:20:04;98151.34;;;14.34
70819;BMP280;58439;51.046;13.692;2023-03-31T14:26:02;98167.41;;;16.01
70819;BMP280;58439;51.046;13.692;2023-03-31T14:29:06;98156.97;;;16.19
70819;BMP280;58439;51.046;13.692;2023-03-31T14:32:04;98153.63;;;16.85
70819;BMP280;58439;51.046;13.692;2023-03-31T14:35:23;98160.28;;;17.58
70819;BMP280;58439;51.046;13.692;2023-03-31T14:37:56;98154.59;;;17.32
70819;BMP280;58439;51.046;13.692;2023-03-31T14:40:23;98156.25;;;16.85
70819;BMP280;58439;51.046;13.692;2023-03-31T14:42:51;98145.09;;;16.46
70819;BMP280;58439;51.046;13.692;2023-03-31T14:45:25;98142.78;;;16.39
70819;BMP280;58439;51.046;13.692;2023-03-31T14:50:34;98125.97;;;17.39
70819;BMP280;58439;51.046;13.692;2023-03-31T14:53:34;98129.94;;;19.56
70819;BMP280;58439;51.046;13.692;2023-03-31T14:56:37;98131.47;;;20.94
70819;BMP280;58439;51.046;13.692;2023-03-31T14:59:07;98118.03;;;21.71
70819;BMP280;58439;51.046;13.692;2023-03-31T15:01:37;98129.91;;;22.21
70819;BMP280;58439;51.046;13.692;2023-03-31T15:04:12;98129.06;;;22.79
70819;BMP280;58439;51.046;13.692;2023-03-31T15:06:45;98128.44;;;22.94
70819;BMP280;58439;51.046;13.692;2023-03-31T15:09:27;98124.50;;;23.12
70819;BMP280;58439;51.046;13.692;2023-03-31T15:12:02;98126.53;;;22.74
70819;BMP280;58439;51.046;13.692;2023-03-31T15:14:41;98126.59;;;22.65
70819;BMP280;58439;51.046;13.692;2023-03-31T15:17:38;98116.44;;;21.06
70819;BMP280;58439;51.046;13.692;2023-03-31T15:20:35;98129.94;;;18.98
70819;BMP280;58439;51.046;13.692;2023-03-31T15:23:23;98126.53;;;17.55
70819;BMP280;58439;51.046;13.692;2023-03-31T15:26:04;98120.22;;;16.76
70819;BMP280;58439;51.046;13.692;2023-03-31T15:28:49;98124.16;;;16.02
70819;BMP280;58439;51.046;13.692;2023-03-31T15:31:22;98116.03;;;15.64
70819;BMP280;58439;51.046;13.692;2023-03-31T15:33:55;98116.75;;;15.35
70819;BMP280;58439;51.046;13.692;2023-03-31T15:36:25;98123.78;;;15.06
70819;BMP280;58439;51.046;13.692;2023-03-31T15:38:58;98108.25;;;14.99
70819;BMP280;58439;51.046;13.692;2023-03-31T15:41:29;98105.38;;;14.96
70819;BMP280;58439;51.046;13.692;2023-03-31T15:47:00;98106.31;;;15.59
70819;BMP280;58439;51.046;13.692;2023-03-31T15:49:28;98099.81;;;15.81
70819;BMP280;58439;51.046;13.692;2023-03-31T15:52:01;98099.44;;;15.98
70819;BMP280;58439;51.046;13.692;2023-03-31T15:54:36;98103.50;;;15.85
70819;BMP280;58439;51.046;13.692;2023-03-31T15:57:08;98104.78;;;15.87
70819;BMP280;58439;51.046;13.692;2023-03-31T15:59:50;98101.13;;;15.83
70819;BMP280;58439;51.046;13.692;2023-03-31T16:02:43;98095.34;;;16.10
70819;BMP280;58439;51.046;13.692;2023-03-31T16:05:39;98097.47;;;16.99
70819;BMP280;58439;51.046;13.692;2023-03-31T16:08:39;98102.25;;;16.97
70819;BMP280;58439;51.046;13.692;2023-03-31T16:11:43;98084.25;;;16.37
70819;BMP280;58439;51.046;13.692;2023-03-31T16:14:35;98091.28;;;15.94
70819;BMP280;58439;51.046;13.692;2023-03-31T16:17:21;98085.34;;;15.44
70819;BMP280;58439;51.046;13.692;2023-03-31T16:19:59;98084.50;;;15.15
70819;BMP280;58439;51.046;13.692;2023-03-31T16:22:46;98085.66;;;14.88
70819;BMP280;58439;51.046;13.692;2023-03-31T16:25:18;98087.88;;;14.61
70819;BMP280;58439;51.046;13.692;2023-03-31T16:27:54;98101.88;;;14.41
70819;BMP280;58439;51.046;13.692;2023-03-31T16:30:43;98106.13;;;14.22
70819;BMP280;58439;51.046;13.692;2023-03-31T16:33:18;98110.59;;;14.11
70819;BMP280;58439;51.046;13.692;2023-03-31T16:35:49;98134.81;;;14.03
70819;BMP280;58439;51.046;13.692;2023-03-31T16:38:22;98129.56;;;13.87
70819;BMP280;58439;51.046;13.692;2023-03-31T16:40:56;98140.81;;;13.73
70819;BMP280;58439;51.046;13.692;2023-03-31T16:43:27;98136.59;;;13.62
70819;BMP280;58439;51.046;13.692;2023-03-31T16:45:57;98137.88;;;13.54
70819;BMP280;58439;51.046;13.692;2023-03-31T16:48:27;98139.97;;;13.47
70819;BMP280;58439;51.046;13.692;2023-03-31T16:50:57;98143.66;;;13.46
70819;BMP280;58439;51.046;13.692;2023-03-31T16:53:29;98145.22;;;13.42
70819;BMP280;58439;51.046;13.692;2023-03-31T16:55:59;98146.56;;;13.44
70819;BMP280;58439;51.046;13.692;2023-03-31T16:58:27;98153.06;;;13.31
70819;BMP280;58439;51.046;13.692;2023-03-31T17:00:57;98142.75;;;13.10
70819;BMP280;58439;51.046;13.692;2023-03-31T17:03:26;98145.53;;;12.88
70819;BMP280;58439;51.046;13.692;2023-03-31T17:05:56;98147.22;;;12.62
70819;BMP280;58439;51.046;13.692;2023-03-31T17:08:26;98144.47;;;12.41
70819;BMP280;58439;51.046;13.692;2023-03-31T17:11:05;98141.69;;;12.21
70819;BMP280;58439;51.046;13.692;2023-03-31T17:13:33;98138.41;;;12.04
70819;BMP280;58439;51.046;13.692;2023-03-31T17:16:01;98145.38;;;11.93
70819;BMP280;58439;51.046;13.692;2023-03-31T17:18:48;98142.38;;;11.79
70819;BMP280;58439;51.046;13.692;2023-03-31T17:21:16;98137.81;;;11.70
70819;BMP280;58439;51.046;13.692;2023-03-31T17:23:46;98138.22;;;11.56
70819;BMP280;58439;51.046;13.692;2023-03-31T17:26:15;98134.47;;;11.47
70819;BMP280;58439;51.046;13.692;2023-03-31T17:28:42;98132.28;;;11.39
70819;BMP280;58439;51.046;13.692;2023-03-31T17:31:23;98132.72;;;11.31
70819;BMP280;58439;51.046;13.692;2023-03-31T17:33:51;98137.31;;;11.24
70819;BMP280;58439;51.046;13.692;2023-03-31T17:36:18;98135.34;;;11.14
70819;BMP280;58439;51.046;13.692;2023-03-31T17:38:45;98141.00;;;11.06
70819;BMP280;58439;51.046;13.692;2023-03-31T17:41:13;98137.25;;;10.97
70819;BMP280;58439;51.046;13.692;2023-03-31T17:43:46;98131.13;;;10.91
70819;BMP280;58439;51.046;13.692;2023-03-31T17:46:16;98139.50;;;10.88
70819;BMP280;58439;51.046;13.692;2023-03-31T17:48:52;98134.50;;;10.87
70819;BMP280;58439;51.046;13.692;2023-03-31T17:52:08;98143.31;;;10.81
70819;BMP280;58439;51.046;13.692;2023-03-31T17:55:03;98153.44;;;10.77
70819;BMP280;58439;51.046;13.692;2023-03-31T17:58:06;98159.47;;;10.78
70819;BMP280;58439;51.046;13.692;2023-03-31T18:01:12;98153.19;;;10.79
70819;BMP280;58439;51.046;13.692;2023-03-31T18:04:30;98157.88;;;10.77
70819;BMP280;58439;51.046;13.692;2023-03-31T18:07:38;98162.31;;;10.76
70819;BMP280;58439;51.046;13.692;2023-03-31T18:10:20;98164.69;;;10.78
70819;BMP280;58439;51.046;13.692;2023-03-31T18:15:56;98169.19;;;10.82
70819;BMP280;58439;51.046;13.692;2023-03-31T18:18:25;98165.00;;;10.81
70819;BMP280;58439;51.046;13.692;2023-03-31T18:20:55;98174.19;;;10.84
70819;BMP280;58439;51.046;13.692;2023-03-31T18:23:23;98172.59;;;10.83
70819;BMP280;58439;51.046;13.692;2023-03-31T18:25:50;98187.50;;;10.82
70819;BMP280;58439;51.046;13.692;2023-03-31T18:28:17;98184.38;;;10.80
70819;BMP280;58439;51.046;13.692;2023-03-31T18:30:47;98189.25;;;10.77
70819;BMP280;58439;51.046;13.692;2023-03-31T18:33:23;98195.28;;;10.77
70819;BMP280;58439;51.046;13.692;2023-03-31T18:35:58;98196.31;;;10.76
70819;BMP280;58439;51.046;13.692;2023-03-31T18:38:33;98199.00;;;10.81
70819;BMP280;58439;51.046;13.692;2023-03-31T18:41:01;98199.53;;;10.83
70819;BMP280;58439;51.046;13.692;2023-03-31T18:43:29;98190.44;;;10.86
70819;BMP280;58439;51.046;13.692;2023-03-31T18:45:59;98190.75;;;10.89
70819;BMP280;58439;51.046;13.692;2023-03-31T18:48:28;98191.59;;;10.95
70819;BMP280;58439;51.046;13.692;2023-03-31T18:50:55;98193.50;;;10.99
70819;BMP280;58439;51.046;13.692;2023-03-31T18:53:23;98194.84;;;11.02
70819;BMP280;58439;51.046;13.692;2023-03-31T18:55:54;98197.25;;;11.03
70819;BMP280;58439;51.046;13.692;2023-03-31T18:58:25;98203.00;;;11.06
70819;BMP280;58439;51.046;13.692;2023-03-31T19:00:55;98193.66;;;11.10
70819;BMP280;58439;51.046;13.692;2023-03-31T19:03:26;98195.31;;;11.16
70819;BMP280;58439;51.046;13.692;2023-03-31T19:06:07;98195.91;;;11.23
70819;BMP280;58439;51.046;13.692;2023-03-31T19:08:37;98192.31;;;11.29
70819;BMP280;58439;51.046;13.692;2023-03-31T19:11:43;98190.03;;;11.32
70819;BMP280;58439;51.046;13.692;2023-03-31T19:14:46;98197.72;;;11.39
70819;BMP280;58439;51.046;13.692;2023-03-31T19:17:16;98200.13;;;11.46
70819;BMP280;58439;51.046;13.692;2023-03-31T19:19:46;98187.13;;;11.51
70819;BMP280;58439;51.046;13.692;2023-03-31T19:22:15;98190.53;;;11.51
70819;BMP280;58439;51.046;13.692;2023-03-31T19:24:43;98192.09;;;11.52
70819;BMP280;58439;51.046;13.692;2023-03-31T19:27:11;98182.69;;;11.51
70819;BMP280;58439;51.046;13.692;2023-03-31T19:29:38;98190.22;;;11.48
70819;BMP280;58439;51.046;13.692;2023-03-31T19:32:11;98199.81;;;11.42
70819;BMP280;58439;51.046;13.692;2023-03-31T19:34:39;98195.13;;;11.44
70819;BMP280;58439;51.046;13.692;2023-03-31T19:37:09;98208.53;;;11.48
70819;BMP280;58439;51.046;13.692;2023-03-31T19:39:40;98205.19;;;11.52
70819;BMP280;58439;51.046;13.692;2023-03-31T19:42:13;98202.56;;;11.52
70819;BMP280;58439;51.046;13.692;2023-03-31T19:44:44;98205.72;;;11.54
70819;BMP280;58439;51.046;13.692;2023-03-31T19:47:11;98207.53;;;11.54
70819;BMP280;58439;51.046;13.692;2023-03-31T19:49:39;98202.88;;;11.56
70819;BMP280;58439;51.046;13.692;2023-03-31T19:52:06;98202.09;;;11.55
70819;BMP280;58439;51.046;13.692;2023-03-31T19:54:34;98204.94;;;11.54
70819;BMP280;58439;51.046;13.692;2023-03-31T19:57:01;98200.47;;;11.54
70819;BMP280;58439;51.046;13.692;2023-03-31T19:59:28;98197.31;;;11.52
70819;BMP280;58439;51.046;13.692;2023-03-31T20:01:55;98188.63;;;11.47
70819;BMP280;58439;51.046;13.692;2023-03-31T20:04:26;98204.56;;;11.45
70819;BMP280;58439;51.046;13.692;2023-03-31T20:06:53;98198.53;;;11.45
70819;BMP280;58439;51.046;13.692;2023-03-31T20:09:22;98204.56;;;11.45
70819;BMP280;58439;51.046;13.692;2023-03-31T20:11:52;98204.09;;;11.48
70819;BMP280;58439;51.046;13.692;2023-03-31T20:14:22;98198.25;;;11.41
70819;BMP280;58439;51.046;13.692;2023-03-31T20:16:50;98203.16;;;11.38
70819;BMP280;58439;51.046;13.692;2023-03-31T20:19:18;98198.03;;;11.26
70819;BMP280;58439;51.046;13.692;2023-03-31T20:21:50;98197.22;;;11.20
70819;BMP280;58439;51.046;13.692;2023-03-31T20:24:20;98189.28;;;11.15
70819;BMP280;58439;51.046;13.692;2023-03-31T20:26:47;98197.13;;;10.98
70819;BMP280;58439;51.046;13.692;2023-03-31T20:29:15;98205.94;;;10.75
70819;BMP280;58439;51.046;13.692;2023-03-31T20:31:42;98202.56;;;10.58
70819;BMP280;58439;51.046;13.692;2023-03-31T20:34:14;98205.03;;;10.48
70819;BMP280;58439;51.046;13.692;2023-03-31T20:36:45;98216.16;;;10.27
70819;BMP280;58439;51.046;13.692;2023-03-31T20:39:14;98213.06;;;10.13
70819;BMP280;58439;51.046;13.692;2023-03-31T20:41:42;98199.34;;;10.06
70819;BMP280;58439;51.046;13.692;2023-03-31T20:44:12;98200.47;;;9.98
70819;BMP280;58439;51.046;13.692;2023-03-31T20:46:43;98209.81;;;9.94
70819;BMP280;58439;51.046;13.692;2023-03-31T20:49:11;98199.28;;;9.89
70819;BMP280;58439;51.046;13.692;2023-03-31T20:51:39;98204.97;;;9.86
70819;BMP280;58439;51.046;13.692;2023-03-31T20:54:07;98202.44;;;9.91
70819;BMP280;58439;51.046;13.692;2023-03-31T20:56:41;98204.50;;;9.89
70819;BMP280;58439;51.046;13.692;2023-03-31T20:59:14;98211.63;;;9.94
70819;BMP280;58439;51.046;13.692;2023-03-31T21:02:13;98216.25;;;10.03
70819;BMP280;58439;51.046;13.692;2023-03-31T21:05:38;98217.50;;;10.12
70819;BMP280;58439;51.046;13.692;2023-03-31T21:08:31;98213.53;;;10.27
70819;BMP280;58439;51.046;13.692;2023-03-31T21:11:13;98218.94;;;10.37